sensor_id;sensor_type;location;lat;lon;timestamp;P1;durP1;ratioP1;P2;durP2;ratioP2
9392;SDS011;4736;52.508;13.422;2023-04-15T00:00:27;25.87;;;23.27;;
9392;SDS011;4736;52.508;13.422;2023-04-15T00:03:30;31.50;;;25.60;;
9392;SDS011;4736;52.508;13.422;2023-04-15T00:06:35;28.43;;;24.97;;
9392;SDS011;4736;52.508;13.422;2023-04-15T00:09:41;29.57;;;26.40;;
9392;SDS011;4736;52.508;13.422;2023-04-15T00:12:47;27.40;;;24.50;;
9392;SDS011;4736;52.508;13.422;2023-04-15T00:15:50;31.30;;;26.77;;
9392;SDS011;4736;52.508;13.422;2023-04-15T00:18:53;31.73;;;25.53;;
9392;SDS011;4736;52.508;13.422;2023-04-15T00:21:57;29.73;;;25.87;;
9392;SDS011;4736;52.508;13.422;2023-04-15T00:25:03;29.07;;;25.97;;
9392;SDS011;4736;52.508;13.422;2023-04-15T00:28:07;29.70;;;25.90;;
9392;SDS011;4736;52.508;13.422;2023-04-15T00:31:10;29.07;;;25.93;;
9392;SDS011;4736;52.508;13.422;2023-04-15T00:34:13;29.47;;;26.20;;
9392;SDS011;4736;52.508;13.422;2023-04-15T00:37:16;33.20;;;27.80;;
9392;SDS011;4736;52.508;13.422;2023-04-15T00:40:22;30.63;;;25.73;;
9392;SDS011;4736;52.508;13.422;2023-04-15T00:43:26;34.10;;;27.63;;
9392;SDS011;4736;52.508;13.422;2023-04-15T00:46:29;34.87;;;27.40;;
9392;SDS011;4736;52.508;13.422;2023-04-15T00:49:34;34.23;;;27.70;;
9392;SDS011;4736;52.508;13.422;2023-04-15T00:52:37;37.50;;;29.40;;
9392;SDS011;4736;52.508;13.422;2023-04-15T00:55:42;33.03;;;28.07;;
9392;SDS011;4736;52.508;13.422;2023-04-15T00:58:46;34.27;;;27.87;;
9392;SDS011;4736;52.508;13.422;2023-04-15T01:01:49;34.43;;;28.93;;
9392;SDS011;4736;52.508;13.422;2023-04-15T01:04:53;34.57;;;27.40;;
9392;SDS011;4736;52.508;13.422;2023-04-15T01:07:58;36.23;;;28.30;;
9392;SDS011;4736;52.508;13.422;2023-04-15T01:11:02;35.17;;;27.90;;
9392;SDS011;4736;52.508;13.422;2023-04-15T01:14:06;33.97;;;27.37;;
9392;SDS011;4736;52.508;13.422;2023-04-15T01:17:10;35.93;;;29.60;;
9392;SDS011;4736;52.508;13.422;2023-04-15T01:20:13;34.17;;;26.53;;
9392;SDS011;4736;52.508;13.422;2023-04-15T01:23:17;37.10;;;30.63;;
9392;SDS011;4736;52.508;13.422;2023-04-15T01:26:21;35.33;;;28.50;;
9392;SDS011;4736;52.508;13.422;2023-04-15T01:29:25;34.53;;;27.67;;
9392;SDS011;4736;52.508;13.422;2023-04-15T01:32:28;39.20;;;30.67;;
9392;SDS011;4736;52.508;13.422;2023-04-15T01:35:32;37.73;;;29.80;;
9392;SDS011;4736;52.508;13.422;2023-04-15T01:38:35;36.37;;;29.83;;
9392;SDS011;4736;52.508;13.422;2023-04-15T01:41:40;39.00;;;31.10;;
9392;SDS011;4736;52.508;13.422;2023-04-15T01:44:43;41.90;;;31.40;;
9392;SDS011;4736;52.508;13.422;2023-04-15T01:47:46;35.67;;;27.57;;
9392;SDS011;4736;52.508;13.422;2023-04-15T01:50:49;39.83;;;31.37;;
9392;SDS011;4736;52.508;13.422;2023-04-15T01:53:53;39.03;;;29.73;;
9392;SDS011;4736;52.508;13.422;2023-04-15T01:56:58;40.30;;;29.30;;
9392;SDS011;4736;52.508;13.422;2023-04-15T02:00:02;45.33;;;33.10;;
9392;SDS011;4736;52.508;13.422;2023-04-15T02:03:08;39.03;;;29.73;;
9392;SDS011;4736;52.508;13.422;2023-04-15T02:06:11;41.30;;;30.80;;
9392;SDS011;4736;52.508;13.422;2023-04-15T02:09:14;42.50;;;31.97;;
9392;SDS011;4736;52.508;13.422;2023-04-15T02:12:18;45.40;;;32.07;;
9392;SDS011;4736;52.508;13.422;2023-04-15T02:15:22;38.67;;;30.53;;
9392;SDS011;4736;52.508;13.422;2023-04-15T02:18:25;46.40;;;31.57;;
9392;SDS011;4736;52.508;13.422;2023-04-15T02:21:28;42.60;;;30.43;;
9392;SDS011;4736;52.508;13.422;2023-04-15T02:24:32;39.17;;;30.97;;
9392;SDS011;4736;52.508;13.422;2023-04-15T02:27:36;42.80;;;31.83;;
9392;SDS011;4736;52.508;13.422;2023-04-15T02:30:39;43.60;;;32.73;;
9392;SDS011;4736;52.508;13.422;2023-04-15T02:33:43;42.20;;;31.13;;
9392;SDS011;4736;52.508;13.422;2023-04-15T02:36:46;46.43;;;32.70;;
9392;SDS011;4736;52.508;13.422;2023-04-15T02:39:50;46.40;;;32.67;;
9392;SDS011;4736;52.508;13.422;2023-04-15T02:42:54;46.27;;;33.40;;
9392;SDS011;4736;52.508;13.422;2023-04-15T02:45:57;44.40;;;32.17;;
9392;SDS011;4736;52.508;13.422;2023-04-15T02:49:00;43.23;;;30.53;;
9392;SDS011;4736;52.508;13.422;2023-04-15T02:52:03;42.93;;;31.07;;
9392;SDS011;4736;52.508;13.422;2023-04-15T02:55:07;41.87;;;29.77;;
9392;SDS011;4736;52.508;13.422;2023-04-15T02:58:12;40.10;;;29.77;;
9392;SDS011;4736;52.508;13.422;2023-04-15T03:01:15;42.13;;;30.10;;
9392;SDS011;4736;52.508;13.422;2023-04-15T03:04:18;40.13;;;30.17;;
9392;SDS011;4736;52.508;13.422;2023-04-15T03:07:22;36.27;;;27.47;;
9392;SDS011;4736;52.508;13.422;2023-04-15T03:10:25;38.90;;;28.43;;
9392;SDS011;4736;52.508;13.422;2023-04-15T03:13:30;38.27;;;29.87;;
9392;SDS011;4736;52.508;13.422;2023-04-15T03:16:33;38.73;;;29.17;;
9392;SDS011;4736;52.508;13.422;2023-04-15T03:19:36;33.97;;;26.67;;
9392;SDS011;4736;52.508;13.422;2023-04-15T03:22:39;35.13;;;27.10;;
9392;SDS011;4736;52.508;13.422;2023-04-15T03:25:43;41.70;;;30.80;;
9392;SDS011;4736;52.508;13.422;2023-04-15T03:28:48;34.87;;;26.63;;
9392;SDS011;4736;52.508;13.422;2023-04-15T03:31:51;35.57;;;27.23;;
9392;SDS011;4736;52.508;13.422;2023-04-15T03:34:55;36.83;;;28.67;;
9392;SDS011;4736;52.508;13.422;2023-04-15T03:37:58;33.00;;;25.37;;
9392;SDS011;4736;52.508;13.422;2023-04-15T03:41:01;41.33;;;30.67;;
9392;SDS011;4736;52.508;13.422;2023-04-15T03:44:05;33.73;;;26.37;;
9392;SDS011;4736;52.508;13.422;2023-04-15T03:47:08;36.63;;;29.20;;
9392;SDS011;4736;52.508;13.422;2023-04-15T03:50:12;36.20;;;27.70;;
9392;SDS011;4736;52.508;13.422;2023-04-15T03:53:15;37.27;;;27.77;;
9392;SDS011;4736;52.508;13.422;2023-04-15T03:56:18;36.07;;;28.23;;
9392;SDS011;4736;52.508;13.422;2023-04-15T03:59:22;34.70;;;26.73;;
9392;SDS011;4736;52.508;13.422;2023-04-15T04:02:25;35.80;;;27.63;;
9392;SDS011;4736;52.508;13.422;2023-04-15T04:05:29;35.97;;;26.97;;
9392;SDS011;4736;52.508;13.422;2023-04-15T04:08:32;36.27;;;27.33;;
9392;SDS011;4736;52.508;13.422;2023-04-15T04:11:35;33.03;;;26.70;;
9392;SDS011;4736;52.508;13.422;2023-04-15T04:14:40;33.33;;;26.20;;
9392;SDS011;4736;52.508;13.422;2023-04-15T04:17:43;36.30;;;26.23;;
9392;SDS011;4736;52.508;13.422;2023-04-15T04:20:46;31.37;;;25.07;;
9392;SDS011;4736;52.508;13.422;2023-04-15T04:23:49;32.33;;;25.57;;
9392;SDS011;4736;52.508;13.422;2023-04-15T04:26:52;36.67;;;27.37;;
9392;SDS011;4736;52.508;13.422;2023-04-15T04:29:58;32.63;;;26.57;;
9392;SDS011;4736;52.508;13.422;2023-04-15T04:33:04;30.97;;;25.80;;
9392;SDS011;4736;52.508;13.422;2023-04-15T04:36:08;31.00;;;25.17;;
9392;SDS011;4736;52.508;13.422;2023-04-15T04:39:11;36.77;;;25.83;;
9392;SDS011;4736;52.508;13.422;2023-04-15T04:42:14;28.27;;;24.57;;
9392;SDS011;4736;52.508;13.422;2023-04-15T04:45:19;32.23;;;25.23;;
9392;SDS011;4736;52.508;13.422;2023-04-15T04:48:22;32.97;;;26.30;;
9392;SDS011;4736;52.508;13.422;2023-04-15T04:51:26;26.43;;;23.43;;
9392;SDS011;4736;52.508;13.422;2023-04-15T04:54:29;31.87;;;26.40;;
9392;SDS011;4736;52.508;13.422;2023-04-15T04:57:32;28.17;;;24.33;;
9392;SDS011;4736;52.508;13.422;2023-04-15T05:00:37;31.47;;;25.53;;
9392;SDS011;4736;52.508;13.422;2023-04-15T05:03:42;30.30;;;24.83;;
9392;SDS011;4736;52.508;13.422;2023-04-15T05:06:46;30.33;;;24.43;;
9392;SDS011;4736;52.508;13.422;2023-04-15T05:09:49;30.77;;;24.13;;
9392;SDS011;4736;52.508;13.422;2023-04-15T05:12:52;35.53;;;26.17;;
9392;SDS011;4736;52.508;13.422;2023-04-15T05:15:57;31.37;;;23.90;;
9392;SDS011;4736;52.508;13.422;2023-04-15T05:19:00;25.87;;;22.40;;
9392;SDS011;4736;52.508;13.422;2023-04-15T05:22:05;26.63;;;23.83;;
9392;SDS011;4736;52.508;13.422;2023-04-15T05:25:09;29.30;;;22.77;;
9392;SDS011;4736;52.508;13.422;2023-04-15T05:28:12;25.40;;;21.77;;
9392;SDS011;4736;52.508;13.422;2023-04-15T05:31:17;28.97;;;23.13;;
9392;SDS011;4736;52.508;13.422;2023-04-15T05:34:20;23.03;;;20.57;;
9392;SDS011;4736;52.508;13.422;2023-04-15T05:37:23;23.27;;;20.27;;
9392;SDS011;4736;52.508;13.422;2023-04-15T05:40:26;23.83;;;19.60;;
9392;SDS011;4736;52.508;13.422;2023-04-15T05:43:29;19.77;;;17.70;;
9392;SDS011;4736;52.508;13.422;2023-04-15T05:46:34;20.83;;;18.63;;
9392;SDS011;4736;52.508;13.422;2023-04-15T05:49:37;19.60;;;17.63;;
9392;SDS011;4736;52.508;13.422;2023-04-15T05:52:40;22.07;;;19.70;;
9392;SDS011;4736;52.508;13.422;2023-04-15T05:55:44;20.53;;;18.43;;
9392;SDS011;4736;52.508;13.422;2023-04-15T05:58:47;20.70;;;18.57;;
9392;SDS011;4736;52.508;13.422;2023-04-15T06:01:54;19.70;;;17.57;;
9392;SDS011;4736;52.508;13.422;2023-04-15T06:04:59;20.97;;;18.83;;
9392;SDS011;4736;52.508;13.422;2023-04-15T06:08:03;18.87;;;17.10;;
9392;SDS011;4736;52.508;13.422;2023-04-15T06:11:07;20.03;;;16.20;;
9392;SDS011;4736;52.508;13.422;2023-04-15T06:14:10;18.13;;;16.43;;
9392;SDS011;4736;52.508;13.422;2023-04-15T06:17:14;19.27;;;17.30;;
9392;SDS011;4736;52.508;13.422;2023-04-15T06:20:19;18.70;;;16.90;;
9392;SDS011;4736;52.508;13.422;2023-04-15T06:23:22;17.57;;;15.97;;
9392;SDS011;4736;52.508;13.422;2023-04-15T06:26:28;17.37;;;15.53;;
9392;SDS011;4736;52.508;13.422;2023-04-15T06:29:31;17.40;;;15.67;;
9392;SDS011;4736;52.508;13.422;2023-04-15T06:32:35;17.10;;;15.40;;
9392;SDS011;4736;52.508;13.422;2023-04-15T06:35:39;16.93;;;15.40;;
9392;SDS011;4736;52.508;13.422;2023-04-15T06:38:42;15.27;;;13.87;;
9392;SDS011;4736;52.508;13.422;2023-04-15T06:41:45;14.80;;;13.50;;
9392;SDS011;4736;52.508;13.422;2023-04-15T06:44:48;15.93;;;14.43;;
9392;SDS011;4736;52.508;13.422;2023-04-15T06:47:52;15.80;;;14.27;;
9392;SDS011;4736;52.508;13.422;2023-04-15T06:50:56;15.73;;;14.30;;
9392;SDS011;4736;52.508;13.422;2023-04-15T06:53:59;17.87;;;14.40;;
9392;SDS011;4736;52.508;13.422;2023-04-15T06:57:02;15.77;;;14.27;;
9392;SDS011;4736;52.508;13.422;2023-04-15T07:00:06;14.33;;;13.13;;
9392;SDS011;4736;52.508;13.422;2023-04-15T07:03:12;15.23;;;13.93;;
9392;SDS011;4736;52.508;13.422;2023-04-15T07:06:16;15.13;;;13.93;;
9392;SDS011;4736;52.508;13.422;2023-04-15T07:09:19;15.00;;;13.77;;
9392;SDS011;4736;52.508;13.422;2023-04-15T07:12:22;15.27;;;13.97;;
9392;SDS011;4736;52.508;13.422;2023-04-15T07:15:25;14.67;;;13.37;;
9392;SDS011;4736;52.508;13.422;2023-04-15T07:18:29;13.13;;;12.10;;
9392;SDS011;4736;52.508;13.422;2023-04-15T07:21:32;13.47;;;12.07;;
9392;SDS011;4736;52.508;13.422;2023-04-15T07:24:35;13.67;;;12.67;;
9392;SDS011;4736;52.508;13.422;2023-04-15T07:27:39;14.80;;;13.40;;
9392;SDS011;4736;52.508;13.422;2023-04-15T07:30:42;14.50;;;13.23;;
9392;SDS011;4736;52.508;13.422;2023-04-15T07:33:46;13.57;;;12.63;;
9392;SDS011;4736;52.508;13.422;2023-04-15T07:36:49;15.13;;;13.83;;
9392;SDS011;4736;52.508;13.422;2023-04-15T07:39:52;14.50;;;13.37;;
9392;SDS011;4736;52.508;13.422;2023-04-15T07:42:56;13.90;;;12.77;;
9392;SDS011;4736;52.508;13.422;2023-04-15T07:45:59;14.77;;;13.50;;
9392;SDS011;4736;52.508;13.422;2023-04-15T07:49:03;15.57;;;14.13;;
9392;SDS011;4736;52.508;13.422;2023-04-15T07:52:07;14.97;;;13.67;;
9392;SDS011;4736;52.508;13.422;2023-04-15T07:55:11;15.13;;;13.73;;
9392;SDS011;4736;52.508;13.422;2023-04-15T07:58:19;15.17;;;13.87;;
9392;SDS011;4736;52.508;13.422;2023-04-15T08:01:23;15.20;;;13.80;;
9392;SDS011;4736;52.508;13.422;2023-04-15T08:04:28;14.33;;;13.10;;
9392;SDS011;4736;52.508;13.422;2023-04-15T08:07:32;15.73;;;14.43;;
9392;SDS011;4736;52.508;13.422;2023-04-15T08:10:35;15.83;;;14.33;;
9392;SDS011;4736;52.508;13.422;2023-04-15T08:13:39;15.13;;;13.93;;
9392;SDS011;4736;52.508;13.422;2023-04-15T08:16:42;15.73;;;14.43;;
9392;SDS011;4736;52.508;13.422;2023-04-15T08:19:46;16.53;;;14.87;;
9392;SDS011;4736;52.508;13.422;2023-04-15T08:22:49;16.73;;;15.23;;
9392;SDS011;4736;52.508;13.422;2023-04-15T08:25:54;17.60;;;16.10;;
9392;SDS011;4736;52.508;13.422;2023-04-15T08:28:57;18.00;;;16.53;;
9392;SDS011;4736;52.508;13.422;2023-04-15T08:32:00;16.23;;;14.73;;
9392;SDS011;4736;52.508;13.422;2023-04-15T08:35:06;18.27;;;15.83;;
9392;SDS011;4736;52.508;13.422;2023-04-15T08:38:09;17.20;;;15.70;;
9392;SDS011;4736;52.508;13.422;2023-04-15T08:41:17;16.33;;;14.93;;
9392;SDS011;4736;52.508;13.422;2023-04-15T08:44:23;17.10;;;15.53;;
9392;SDS011;4736;52.508;13.422;2023-04-15T08:47:28;17.30;;;15.90;;
9392;SDS011;4736;52.508;13.422;2023-04-15T08:50:34;17.47;;;15.83;;
9392;SDS011;4736;52.508;13.422;2023-04-15T08:53:38;17.27;;;15.77;;
9392;SDS011;4736;52.508;13.422;2023-04-15T08:56:41;17.43;;;15.63;;
9392;SDS011;4736;52.508;13.422;2023-04-15T08:59:44;17.20;;;15.70;;
9392;SDS011;4736;52.508;13.422;2023-04-15T09:02:48;17.17;;;15.77;;
9392;SDS011;4736;52.508;13.422;2023-04-15T09:05:53;16.70;;;15.23;;
9392;SDS011;4736;52.508;13.422;2023-04-15T09:08:57;15.80;;;14.60;;
9392;SDS011;4736;52.508;13.422;2023-04-15T09:12:00;17.10;;;15.57;;
9392;SDS011;4736;52.508;13.422;2023-04-15T09:15:04;16.60;;;15.30;;
9392;SDS011;4736;52.508;13.422;2023-04-15T09:18:10;17.37;;;15.73;;
9392;SDS011;4736;52.508;13.422;2023-04-15T09:21:15;15.60;;;14.33;;
9392;SDS011;4736;52.508;13.422;2023-04-15T09:24:19;16.73;;;15.43;;
9392;SDS011;4736;52.508;13.422;2023-04-15T09:27:23;16.97;;;15.50;;
9392;SDS011;4736;52.508;13.422;2023-04-15T09:30:26;15.97;;;14.57;;
9392;SDS011;4736;52.508;13.422;2023-04-15T09:33:30;16.77;;;15.30;;
9392;SDS011;4736;52.508;13.422;2023-04-15T09:36:51;16.27;;;14.87;;
9392;SDS011;4736;52.508;13.422;2023-04-15T09:39:55;15.33;;;13.93;;
9392;SDS011;4736;52.508;13.422;2023-04-15T09:42:58;15.57;;;14.47;;
9392;SDS011;4736;52.508;13.422;2023-04-15T09:46:02;16.03;;;14.63;;
9392;SDS011;4736;52.508;13.422;2023-04-15T09:49:08;15.90;;;14.37;;
9392;SDS011;4736;52.508;13.422;2023-04-15T09:52:13;15.67;;;14.50;;
9392;SDS011;4736;52.508;13.422;2023-04-15T09:55:17;15.13;;;13.93;;
9392;SDS011;4736;52.508;13.422;2023-04-15T09:58:20;15.80;;;14.50;;
9392;SDS011;4736;52.508;13.422;2023-04-15T10:01:24;15.07;;;13.87;;
9392;SDS011;4736;52.508;13.422;2023-04-15T10:04:27;15.43;;;13.93;;
9392;SDS011;4736;52.508;13.422;2023-04-15T10:07:33;15.23;;;14.03;;
9392;SDS011;4736;52.508;13.422;2023-04-15T10:10:36;14.20;;;13.10;;
9392;SDS011;4736;52.508;13.422;2023-04-15T10:13:39;15.13;;;13.97;;
9392;SDS011;4736;52.508;13.422;2023-04-15T10:16:43;15.67;;;14.27;;
9392;SDS011;4736;52.508;13.422;2023-04-15T10:19:50;15.73;;;14.43;;
9392;SDS011;4736;52.508;13.422;2023-04-15T10:22:56;14.93;;;13.57;;
9392;SDS011;4736;52.508;13.422;2023-04-15T10:26:00;14.10;;;13.03;;
9392;SDS011;4736;52.508;13.422;2023-04-15T10:29:05;15.43;;;14.13;;
9392;SDS011;4736;52.508;13.422;2023-04-15T10:32:09;15.30;;;14.13;;
9392;SDS011;4736;52.508;13.422;2023-04-15T10:35:14;13.93;;;12.83;;
9392;SDS011;4736;52.508;13.422;2023-04-15T10:38:32;14.97;;;13.97;;
9392;SDS011;4736;52.508;13.422;2023-04-15T10:41:37;13.73;;;12.53;;
9392;SDS011;4736;52.508;13.422;2023-04-15T10:44:41;14.43;;;13.33;;
9392;SDS011;4736;52.508;13.422;2023-04-15T10:47:44;14.07;;;12.93;;
9392;SDS011;4736;52.508;13.422;2023-04-15T10:50:54;14.67;;;13.40;;
9392;SDS011;4736;52.508;13.422;2023-04-15T10:53:59;14.80;;;13.60;;
9392;SDS011;4736;52.508;13.422;2023-04-15T10:57:06;14.87;;;13.73;;
9392;SDS011;4736;52.508;13.422;2023-04-15T11:00:15;13.20;;;12.30;;
9392;SDS011;4736;52.508;13.422;2023-04-15T11:03:33;14.20;;;13.10;;
9392;SDS011;4736;52.508;13.422;2023-04-15T11:06:42;14.77;;;13.50;;
9392;SDS011;4736;52.508;13.422;2023-04-15T11:09:47;15.13;;;14.03;;
9392;SDS011;4736;52.508;13.422;2023-04-15T11:12:51;15.40;;;14.03;;
9392;SDS011;4736;52.508;13.422;2023-04-15T11:15:56;14.63;;;13.47;;
9392;SDS011;4736;52.508;13.422;2023-04-15T11:19:02;14.10;;;13.00;;
9392;SDS011;4736;52.508;13.422;2023-04-15T11:22:06;15.20;;;14.00;;
9392;SDS011;4736;52.508;13.422;2023-04-15T11:25:11;14.57;;;13.37;;
9392;SDS011;4736;52.508;13.422;2023-04-15T11:28:24;13.97;;;12.90;;
9392;SDS011;4736;52.508;13.422;2023-04-15T11:31:29;14.50;;;13.30;;
9392;SDS011;4736;52.508;13.422;2023-04-15T11:34:32;15.80;;;14.40;;
9392;SDS011;4736;52.508;13.422;2023-04-15T11:37:36;16.07;;;14.73;;
9392;SDS011;4736;52.508;13.422;2023-04-15T11:40:41;16.00;;;14.60;;
9392;SDS011;4736;52.508;13.422;2023-04-15T11:43:47;16.70;;;15.23;;
9392;SDS011;4736;52.508;13.422;2023-04-15T11:46:50;15.03;;;13.83;;
9392;SDS011;4736;52.508;13.422;2023-04-15T11:49:55;15.17;;;13.97;;
9392;SDS011;4736;52.508;13.422;2023-04-15T11:52:58;15.70;;;14.40;;
9392;SDS011;4736;52.508;13.422;2023-04-15T11:56:05;14.53;;;13.30;;
9392;SDS011;4736;52.508;13.422;2023-04-15T11:59:09;15.17;;;13.70;;
9392;SDS011;4736;52.508;13.422;2023-04-15T12:02:12;14.90;;;13.77;;
9392;SDS011;4736;52.508;13.422;2023-04-15T12:05:15;14.07;;;12.87;;
9392;SDS011;4736;52.508;13.422;2023-04-15T12:08:19;14.07;;;13.00;;
9392;SDS011;4736;52.508;13.422;2023-04-15T12:11:27;14.20;;;13.07;;
9392;SDS011;4736;52.508;13.422;2023-04-15T12:14:35;13.70;;;12.50;;
9392;SDS011;4736;52.508;13.422;2023-04-15T12:17:42;12.50;;;11.60;;
9392;SDS011;4736;52.508;13.422;2023-04-15T12:20:52;13.07;;;12.07;;
9392;SDS011;4736;52.508;13.422;2023-04-15T12:23:55;13.70;;;12.60;;
9392;SDS011;4736;52.508;13.422;2023-04-15T12:27:02;13.30;;;12.20;;
9392;SDS011;4736;52.508;13.422;2023-04-15T12:30:07;13.60;;;12.37;;
9392;SDS011;4736;52.508;13.422;2023-04-15T12:33:11;14.83;;;13.53;;
9392;SDS011;4736;52.508;13.422;2023-04-15T12:36:15;13.47;;;12.53;;
9392;SDS011;4736;52.508;13.422;2023-04-15T12:39:20;13.03;;;12.03;;
9392;SDS011;4736;52.508;13.422;2023-04-15T12:42:25;13.83;;;12.60;;
9392;SDS011;4736;52.508;13.422;2023-04-15T12:45:28;10.97;;;10.17;;
9392;SDS011;4736;52.508;13.422;2023-04-15T12:48:40;12.30;;;11.33;;
9392;SDS011;4736;52.508;13.422;2023-04-15T12:51:43;10.53;;;9.93;;
9392;SDS011;4736;52.508;13.422;2023-04-15T12:54:46;12.20;;;11.13;;
9392;SDS011;4736;52.508;13.422;2023-04-15T12:57:51;12.47;;;11.57;;
9392;SDS011;4736;52.508;13.422;2023-04-15T13:00:54;11.40;;;10.60;;
9392;SDS011;4736;52.508;13.422;2023-04-15T13:03:57;11.13;;;10.33;;
9392;SDS011;4736;52.508;13.422;2023-04-15T13:07:00;11.77;;;10.87;;
9392;SDS011;4736;52.508;13.422;2023-04-15T13:10:04;11.10;;;10.33;;
9392;SDS011;4736;52.508;13.422;2023-04-15T13:13:10;10.63;;;9.83;;
9392;SDS011;4736;52.508;13.422;2023-04-15T13:16:13;11.53;;;10.63;;
9392;SDS011;4736;52.508;13.422;2023-04-15T13:19:16;10.53;;;9.83;;
9392;SDS011;4736;52.508;13.422;2023-04-15T13:22:19;10.27;;;9.67;;
9392;SDS011;4736;52.508;13.422;2023-04-15T13:25:22;11.17;;;10.47;;
9392;SDS011;4736;52.508;13.422;2023-04-15T13:28:27;11.30;;;10.20;;
9392;SDS011;4736;52.508;13.422;2023-04-15T13:31:31;11.50;;;10.70;;
9392;SDS011;4736;52.508;13.422;2023-04-15T13:34:34;9.63;;;9.00;;
9392;SDS011;4736;52.508;13.422;2023-04-15T13:37:37;9.60;;;9.07;;
9392;SDS011;4736;52.508;13.422;2023-04-15T13:40:40;10.87;;;9.97;;
9392;SDS011;4736;52.508;13.422;2023-04-15T13:43:45;10.70;;;9.90;;
9392;SDS011;4736;52.508;13.422;2023-04-15T13:46:48;10.33;;;9.47;;
9392;SDS011;4736;52.508;13.422;2023-04-15T13:49:51;11.23;;;10.50;;
9392;SDS011;4736;52.508;13.422;2023-04-15T13:52:56;9.90;;;9.30;;
9392;SDS011;4736;52.508;13.422;2023-04-15T13:55:59;11.43;;;10.43;;
9392;SDS011;4736;52.508;13.422;2023-04-15T13:59:04;10.17;;;9.40;;
9392;SDS011;4736;52.508;13.422;2023-04-15T14:02:08;10.10;;;9.50;;
9392;SDS011;4736;52.508;13.422;2023-04-15T14:05:12;9.53;;;8.87;;
9392;SDS011;4736;52.508;13.422;2023-04-15T14:08:15;8.87;;;8.37;;
9392;SDS011;4736;52.508;13.422;2023-04-15T14:11:18;8.53;;;8.13;;
9392;SDS011;4736;52.508;13.422;2023-04-15T14:14:23;8.03;;;7.63;;
9392;SDS011;4736;52.508;13.422;2023-04-15T14:17:26;7.87;;;7.47;;
9392;SDS011;4736;52.508;13.422;2023-04-15T14:20:32;9.53;;;9.00;;
9392;SDS011;4736;52.508;13.422;2023-04-15T14:23:35;8.27;;;7.87;;
9392;SDS011;4736;52.508;13.422;2023-04-15T14:26:38;9.60;;;9.00;;
9392;SDS011;4736;52.508;13.422;2023-04-15T14:29:43;9.73;;;9.13;;
9392;SDS011;4736;52.508;13.422;2023-04-15T14:32:46;9.20;;;8.70;;
9392;SDS011;4736;52.508;13.422;2023-04-15T14:35:49;9.30;;;8.70;;
9392;SDS011;4736;52.508;13.422;2023-04-15T14:38:53;8.83;;;8.33;;
9392;SDS011;4736;52.508;13.422;2023-04-15T14:41:56;9.53;;;8.90;;
9392;SDS011;4736;52.508;13.422;2023-04-15T14:45:01;8.80;;;8.30;;
9392;SDS011;4736;52.508;13.422;2023-04-15T14:48:04;9.33;;;8.73;;
9392;SDS011;4736;52.508;13.422;2023-04-15T14:51:10;9.63;;;8.97;;
9392;SDS011;4736;52.508;13.422;2023-04-15T14:54:13;8.27;;;7.77;;
9392;SDS011;4736;52.508;13.422;2023-04-15T14:57:16;8.50;;;8.10;;
9392;SDS011;4736;52.508;13.422;2023-04-15T15:00:20;8.40;;;7.87;;
9392;SDS011;4736;52.508;13.422;2023-04-15T15:03:24;8.13;;;7.73;;
9392;SDS011;4736;52.508;13.422;2023-04-15T15:06:27;8.07;;;7.67;;
9392;SDS011;4736;52.508;13.422;2023-04-15T15:09:31;9.00;;;8.50;;
9392;SDS011;4736;52.508;13.422;2023-04-15T15:12:35;8.90;;;8.40;;
9392;SDS011;4736;52.508;13.422;2023-04-15T15:15:39;8.83;;;8.33;;
9392;SDS011;4736;52.508;13.422;2023-04-15T15:18:43;7.90;;;7.50;;
9392;SDS011;4736;52.508;13.422;2023-04-15T15:21:46;7.87;;;7.47;;
9392;SDS011;4736;52.508;13.422;2023-04-15T15:24:49;7.53;;;7.07;;
9392;SDS011;4736;52.508;13.422;2023-04-15T15:27:53;8.50;;;7.97;;
9392;SDS011;4736;52.508;13.422;2023-04-15T15:30:58;7.23;;;6.93;;
9392;SDS011;4736;52.508;13.422;2023-04-15T15:34:02;7.40;;;7.00;;
9392;SDS011;4736;52.508;13.422;2023-04-15T15:37:05;8.93;;;8.13;;
9392;SDS011;4736;52.508;13.422;2023-04-15T15:40:09;7.30;;;6.90;;
9392;SDS011;4736;52.508;13.422;2023-04-15T15:43:13;7.37;;;7.07;;
9392;SDS011;4736;52.508;13.422;2023-04-15T15:46:17;8.70;;;8.20;;
9392;SDS011;4736;52.508;13.422;2023-04-15T15:49:21;8.10;;;7.70;;
9392;SDS011;4736;52.508;13.422;2023-04-15T15:52:25;7.60;;;7.20;;
9392;SDS011;4736;52.508;13.422;2023-04-15T15:55:28;7.13;;;6.80;;
9392;SDS011;4736;52.508;13.422;2023-04-15T15:58:32;8.13;;;7.57;;
9392;SDS011;4736;52.508;13.422;2023-04-15T16:01:36;7.87;;;7.57;;
9392;SDS011;4736;52.508;13.422;2023-04-15T16:04:40;10.10;;;9.40;;
9392;SDS011;4736;52.508;13.422;2023-04-15T16:07:43;9.13;;;8.63;;
9392;SDS011;4736;52.508;13.422;2023-04-15T16:10:46;7.63;;;7.33;;
9392;SDS011;4736;52.508;13.422;2023-04-15T16:13:49;9.47;;;8.83;;
9392;SDS011;4736;52.508;13.422;2023-04-15T16:16:54;8.37;;;7.87;;
9392;SDS011;4736;52.508;13.422;2023-04-15T16:19:59;8.93;;;8.33;;
9392;SDS011;4736;52.508;13.422;2023-04-15T16:23:07;8.47;;;8.00;;
9392;SDS011;4736;52.508;13.422;2023-04-15T16:26:14;8.13;;;7.73;;
9392;SDS011;4736;52.508;13.422;2023-04-15T16:29:17;9.67;;;9.07;;
9392;SDS011;4736;52.508;13.422;2023-04-15T16:32:21;8.57;;;8.07;;
9392;SDS011;4736;52.508;13.422;2023-04-15T16:35:24;7.87;;;7.47;;
9392;SDS011;4736;52.508;13.422;2023-04-15T16:38:27;8.50;;;8.10;;
9392;SDS011;4736;52.508;13.422;2023-04-15T16:41:30;9.20;;;8.60;;
9392;SDS011;4736;52.508;13.422;2023-04-15T16:44:34;8.80;;;8.30;;
9392;SDS011;4736;52.508;13.422;2023-04-15T16:47:39;7.63;;;7.23;;
9392;SDS011;4736;52.508;13.422;2023-04-15T16:50:42;7.77;;;7.40;;
9392;SDS011;4736;52.508;13.422;2023-04-15T16:53:48;9.60;;;8.90;;
9392;SDS011;4736;52.508;13.422;2023-04-15T16:56:51;8.13;;;7.63;;
9392;SDS011;4736;52.508;13.422;2023-04-15T16:59:54;7.40;;;7.00;;
9392;SDS011;4736;52.508;13.422;2023-04-15T17:02:58;7.87;;;7.37;;
9392;SDS011;4736;52.508;13.422;2023-04-15T17:06:02;8.10;;;7.70;;
9392;SDS011;4736;52.508;13.422;2023-04-15T17:09:05;7.50;;;7.20;;
9392;SDS011;4736;52.508;13.422;2023-04-15T17:12:08;7.53;;;7.13;;
9392;SDS011;4736;52.508;13.422;2023-04-15T17:15:11;7.70;;;7.30;;
9392;SDS011;4736;52.508;13.422;2023-04-15T17:18:16;7.10;;;6.80;;
9392;SDS011;4736;52.508;13.422;2023-04-15T17:21:19;8.53;;;7.83;;
9392;SDS011;4736;52.508;13.422;2023-04-15T17:24:22;8.03;;;7.40;;
9392;SDS011;4736;52.508;13.422;2023-04-15T17:27:25;7.40;;;7.00;;
9392;SDS011;4736;52.508;13.422;2023-04-15T17:30:29;8.30;;;7.60;;
9392;SDS011;4736;52.508;13.422;2023-04-15T17:33:34;8.30;;;7.80;;
9392;SDS011;4736;52.508;13.422;2023-04-15T17:36:57;8.13;;;7.63;;
9392;SDS011;4736;52.508;13.422;2023-04-15T17:40:01;8.13;;;7.47;;
9392;SDS011;4736;52.508;13.422;2023-04-15T17:43:08;8.43;;;7.87;;
9392;SDS011;4736;52.508;13.422;2023-04-15T17:46:11;7.70;;;7.30;;
9392;SDS011;4736;52.508;13.422;2023-04-15T17:49:15;7.43;;;7.03;;
9392;SDS011;4736;52.508;13.422;2023-04-15T17:52:19;7.30;;;6.93;;
9392;SDS011;4736;52.508;13.422;2023-04-15T17:55:22;9.03;;;8.47;;
9392;SDS011;4736;52.508;13.422;2023-04-15T17:58:25;7.63;;;7.23;;
9392;SDS011;4736;52.508;13.422;2023-04-15T18:01:28;7.10;;;6.80;;
9392;SDS011;4736;52.508;13.422;2023-04-15T18:04:32;6.63;;;6.33;;
9392;SDS011;4736;52.508;13.422;2023-04-15T18:07:36;6.83;;;6.53;;
9392;SDS011;4736;52.508;13.422;2023-04-15T18:10:39;7.63;;;7.13;;
9392;SDS011;4736;52.508;13.422;2023-04-15T18:13:42;7.00;;;6.70;;
9392;SDS011;4736;52.508;13.422;2023-04-15T18:16:45;7.37;;;7.07;;
9392;SDS011;4736;52.508;13.422;2023-04-15T18:19:50;7.13;;;6.83;;